createdAt,value
2022-11-13T00:00:39.958Z,50.80
2022-11-13T00:04:00.454Z,50.80
2022-11-13T00:07:20.955Z,50.80
2022-11-13T00:10:41.411Z,50.80
2022-11-13T00:14:01.837Z,50.90
2022-11-13T00:17:22.238Z,50.90
2022-11-13T00:20:42.542Z,50.90
2022-11-13T00:24:02.980Z,50.80
2022-11-13T00:27:23.574Z,50.80
2022-11-13T00:30:43.780Z,50.90
2022-11-13T00:37:44.329Z,50.90
2022-11-13T00:41:04.738Z,51.00
2022-11-13T00:44:25.099Z,50.90
2022-11-13T00:47:45.488Z,51.00
2022-11-13T00:51:06.226Z,51.00
2022-11-13T00:54:26.527Z,51.00
2022-11-13T00:57:47.012Z,51.00
2022-11-13T01:01:11.729Z,51.00
2022-11-13T01:04:32.406Z,51.00
2022-11-13T01:07:53.106Z,51.00
2022-11-13T01:11:16.863Z,51.00
2022-11-13T01:14:37.205Z,51.10
2022-11-13T01:17:57.630Z,51.10
2022-11-13T01:21:21.147Z,51.10
2022-11-13T01:24:41.661Z,51.10
2022-11-13T01:28:02.318Z,51.10
2022-11-13T01:31:25.852Z,51.10
2022-11-13T01:34:46.028Z,51.10
2022-11-13T01:38:06.353Z,51.20
2022-11-13T01:41:32.467Z,51.20
2022-11-13T01:44:59.583Z,51.20
2022-11-13T01:48:20.065Z,51.20
2022-11-13T01:51:47.687Z,51.20
2022-11-13T01:55:14.180Z,51.30
2022-11-13T01:58:34.989Z,51.20
2022-11-13T02:01:56.556Z,51.20
2022-11-13T02:05:16.984Z,51.20
2022-11-13T02:08:38.089Z,51.30
2022-11-13T02:11:59.113Z,51.20
2022-11-13T02:15:23.921Z,51.30
2022-11-13T02:18:45.022Z,51.20
2022-11-13T02:22:26.331Z,51.30
2022-11-13T02:25:50.291Z,51.40
2022-11-13T02:29:10.820Z,51.30
2022-11-13T02:32:31.338Z,51.30
2022-11-13T02:35:52.445Z,51.30
2022-11-13T02:39:14.606Z,51.30
2022-11-13T02:42:35.037Z,51.30
2022-11-13T02:45:55.502Z,51.40
2022-11-13T02:49:15.979Z,51.40
2022-11-13T02:52:37.041Z,51.40
2022-11-13T02:55:57.379Z,51.40
2022-11-13T02:59:17.778Z,51.40
2022-11-13T03:02:38.181Z,51.40
2022-11-13T03:05:58.803Z,51.40
2022-11-13T03:09:19.520Z,51.30
2022-11-13T03:12:40.842Z,51.30
2022-11-13T03:16:13.210Z,51.30
2022-11-13T03:19:33.634Z,51.40
2022-11-13T03:22:53.944Z,51.40
2022-11-13T03:26:17.230Z,51.40
2022-11-13T03:29:37.650Z,51.40
2022-11-13T03:32:58.097Z,51.40
2022-11-13T03:36:18.591Z,51.40
2022-11-13T03:39:38.868Z,51.40
2022-11-13T03:42:59.259Z,51.40
2022-11-13T03:46:19.747Z,51.50
2022-11-13T03:49:40.222Z,51.40
2022-11-13T03:53:00.686Z,51.40
2022-11-13T03:56:21.058Z,51.40
2022-11-13T03:59:41.509Z,51.40
2022-11-13T04:03:02.039Z,51.40
2022-11-13T04:06:22.482Z,51.30
2022-11-13T04:09:42.925Z,51.30
2022-11-13T04:13:03.424Z,51.40
2022-11-13T04:16:23.780Z,51.40
2022-11-13T04:19:44.088Z,51.40
2022-11-13T04:23:08.173Z,51.40
2022-11-13T04:26:28.695Z,51.40
2022-11-13T04:29:48.808Z,51.30
2022-11-13T04:33:09.361Z,51.40
2022-11-13T04:36:29.643Z,51.40
2022-11-13T04:39:50.038Z,51.40
2022-11-13T04:43:10.476Z,51.40
2022-11-13T04:46:30.889Z,51.40
2022-11-13T04:49:51.432Z,51.40
2022-11-13T04:53:11.753Z,51.40
2022-11-13T04:56:32.269Z,51.40
2022-11-13T04:59:52.609Z,51.40
2022-11-13T05:03:13.030Z,51.40
2022-11-13T05:06:33.451Z,51.40
2022-11-13T05:09:53.979Z,51.40
2022-11-13T05:13:14.269Z,51.40
2022-11-13T05:16:37.811Z,51.40
2022-11-13T05:19:58.115Z,51.40
2022-11-13T05:23:18.401Z,51.40
2022-11-13T05:26:39.978Z,51.50
2022-11-13T05:30:00.319Z,51.50
2022-11-13T05:33:20.772Z,51.50
2022-11-13T05:36:41.189Z,51.40
2022-11-13T05:40:01.733Z,51.40
2022-11-13T05:43:22.053Z,51.40
2022-11-13T05:46:42.503Z,51.40
2022-11-13T05:50:03.050Z,51.40
2022-11-13T05:53:23.421Z,51.40
2022-11-13T05:56:44.588Z,51.40
2022-11-13T06:00:06.060Z,51.40
2022-11-13T06:03:26.205Z,51.50
2022-11-13T06:06:46.617Z,51.50
2022-11-13T06:10:07.445Z,51.40
2022-11-13T06:13:28.434Z,51.50
2022-11-13T06:16:48.951Z,51.50
2022-11-13T06:20:09.713Z,51.50
2022-11-13T06:23:32.247Z,51.60
2022-11-13T06:26:53.663Z,51.30
2022-11-13T06:30:14.359Z,51.30
2022-11-13T06:33:35.313Z,51.30
2022-11-13T06:36:55.467Z,51.20
2022-11-13T06:40:16.021Z,51.20
2022-11-13T06:43:36.702Z,51.20
2022-11-13T06:46:56.890Z,51.30
2022-11-13T06:50:17.433Z,51.20
2022-11-13T06:53:37.806Z,51.20
2022-11-13T06:56:58.242Z,51.20
2022-11-13T07:00:18.768Z,51.20
2022-11-13T07:03:39.518Z,51.20
2022-11-13T07:07:00.192Z,51.10
2022-11-13T07:10:20.469Z,51.10
2022-11-13T07:13:40.946Z,51.20
2022-11-13T07:17:10.129Z,51.20
2022-11-13T07:20:31.615Z,51.10
2022-11-13T07:23:51.710Z,51.00
2022-11-13T07:27:12.097Z,51.40
2022-11-13T07:30:32.487Z,51.00
2022-11-13T07:33:52.864Z,50.90
2022-11-13T07:37:13.373Z,50.90
2022-11-13T07:40:33.881Z,50.90
2022-11-13T07:43:54.171Z,50.80
2022-11-13T07:47:14.544Z,50.90
2022-11-13T07:50:36.713Z,50.70
2022-11-13T07:53:57.398Z,50.80
2022-11-13T07:57:17.721Z,50.70
2022-11-13T08:00:38.877Z,50.70
2022-11-13T08:03:59.336Z,50.70
2022-11-13T08:07:19.751Z,50.80
2022-11-13T08:10:40.463Z,50.70
2022-11-13T08:14:00.692Z,50.70
2022-11-13T08:17:21.235Z,50.90
2022-11-13T08:20:41.534Z,50.70
2022-11-13T08:24:01.967Z,50.90
2022-11-13T08:27:23.095Z,50.70
2022-11-13T08:30:44.503Z,50.70
2022-11-13T08:34:04.854Z,50.70
2022-11-13T08:37:25.465Z,50.70
2022-11-13T08:40:46.003Z,50.70
2022-11-13T08:44:06.545Z,50.70
2022-11-13T08:47:29.706Z,50.70
2022-11-13T08:50:54.992Z,50.60
2022-11-13T08:54:15.359Z,50.70
2022-11-13T08:57:35.868Z,50.70
2022-11-13T09:01:01.480Z,50.70
2022-11-13T09:04:22.274Z,50.70
2022-11-13T09:07:42.369Z,50.60
2022-11-13T09:11:05.096Z,50.60
2022-11-13T09:14:25.756Z,50.70
2022-11-13T09:17:45.949Z,50.60
2022-11-13T09:21:06.454Z,50.60
2022-11-13T09:24:26.651Z,50.60
2022-11-13T09:27:56.297Z,50.60
2022-11-13T09:31:16.757Z,50.60
2022-11-13T09:34:37.060Z,50.60
2022-11-13T09:37:57.423Z,50.60
2022-11-13T09:41:29.137Z,50.60
2022-11-13T09:44:57.501Z,50.60
2022-11-13T09:48:25.978Z,50.50
2022-11-13T09:51:52.852Z,50.70
2022-11-13T09:55:16.388Z,50.70
2022-11-13T09:58:51.447Z,50.70
2022-11-13T10:02:36.104Z,50.70
2022-11-13T10:06:19.601Z,50.60
2022-11-13T10:09:48.279Z,50.60
2022-11-13T10:13:14.373Z,50.60
2022-11-13T10:16:42.925Z,50.60
2022-11-13T10:20:11.161Z,50.60
2022-11-13T10:23:35.061Z,50.70
2022-11-13T10:26:59.594Z,50.60
2022-11-13T10:30:20.145Z,50.60
2022-11-13T10:33:40.563Z,50.60
2022-11-13T10:37:47.233Z,50.60
2022-11-13T10:41:15.486Z,50.70
2022-11-13T10:44:35.953Z,50.70
2022-11-13T10:48:04.901Z,50.70
2022-11-13T10:51:27.632Z,50.70
2022-11-13T10:54:48.808Z,50.70
2022-11-13T10:58:17.147Z,50.70
2022-11-13T11:01:37.592Z,50.80
2022-11-13T11:05:06.276Z,50.70
2022-11-13T11:08:36.719Z,50.60
2022-11-13T11:12:27.244Z,50.70
2022-11-13T11:15:58.261Z,50.70
2022-11-13T11:19:22.380Z,50.60
2022-11-13T11:22:44.666Z,50.60
2022-11-13T11:26:26.548Z,50.50
2022-11-13T11:30:04.928Z,50.50
2022-11-13T11:33:33.934Z,50.40
2022-11-13T11:37:15.394Z,50.40
2022-11-13T11:40:45.299Z,50.30
2022-11-13T11:44:22.385Z,50.40
2022-11-13T11:47:43.772Z,50.40
2022-11-13T11:51:08.817Z,50.40
2022-11-13T11:54:51.385Z,50.40
2022-11-13T11:58:45.013Z,50.40
2022-11-13T12:02:42.613Z,50.50
2022-11-13T12:06:34.055Z,50.60
2022-11-13T12:10:09.910Z,50.50
2022-11-13T12:13:40.245Z,50.60
2022-11-13T12:17:16.874Z,50.60
2022-11-13T12:21:04.319Z,50.60
2022-11-13T12:24:50.227Z,50.60
2022-11-13T12:28:46.519Z,50.60
2022-11-13T12:32:15.560Z,50.70
2022-11-13T12:35:37.257Z,50.70
2022-11-13T12:39:19.679Z,50.70
2022-11-13T12:42:46.071Z,50.70
2022-11-13T12:46:10.150Z,50.70
2022-11-13T12:49:35.975Z,50.80
2022-11-13T12:52:59.972Z,50.80
2022-11-13T12:56:27.495Z,51.40
2022-11-13T12:59:54.145Z,50.80
2022-11-13T13:03:32.738Z,50.80
2022-11-13T13:07:36.045Z,50.80
2022-11-13T13:11:15.136Z,50.90
2022-11-13T13:14:47.100Z,50.90
2022-11-13T13:18:16.498Z,50.90
2022-11-13T13:21:42.751Z,51.00
2022-11-13T13:25:11.837Z,51.00
2022-11-13T13:28:39.408Z,51.00
2022-11-13T13:32:22.126Z,51.10
2022-11-13T13:36:03.643Z,51.10
2022-11-13T13:39:29.638Z,51.20
2022-11-13T13:43:20.823Z,51.00
2022-11-13T13:46:41.876Z,51.00
2022-11-13T13:50:07.237Z,51.10
2022-11-13T13:53:34.650Z,51.20
2022-11-13T13:56:57.713Z,51.30
2022-11-13T14:00:20.293Z,51.40
2022-11-13T14:03:40.807Z,51.50
2022-11-13T14:07:02.822Z,51.50
2022-11-13T14:10:28.275Z,51.50
2022-11-13T14:13:48.940Z,51.50
2022-11-13T14:17:11.699Z,51.70
2022-11-13T14:20:52.061Z,51.70
2022-11-13T14:24:42.823Z,51.70
2022-11-13T14:28:03.226Z,51.70
2022-11-13T14:31:35.449Z,51.70
2022-11-13T14:34:58.710Z,51.80
2022-11-13T14:38:23.006Z,51.90
2022-11-13T14:41:58.935Z,51.90
2022-11-13T14:45:25.470Z,51.80
2022-11-13T14:48:54.478Z,51.80
2022-11-13T14:52:26.649Z,51.80
2022-11-13T14:55:52.582Z,51.90
2022-11-13T14:59:27.796Z,51.90
2022-11-13T15:02:48.156Z,51.90
2022-11-13T15:06:18.328Z,51.90
2022-11-13T15:09:38.588Z,52.00
2022-11-13T15:12:59.153Z,51.90
2022-11-13T15:16:28.319Z,52.00
2022-11-13T15:19:51.745Z,52.00
2022-11-13T15:23:15.409Z,52.00
2022-11-13T15:26:35.688Z,52.00
2022-11-13T15:29:56.293Z,52.10
2022-11-13T15:33:16.893Z,52.00
2022-11-13T15:36:37.429Z,52.00
2022-11-13T15:39:57.976Z,52.00
2022-11-13T15:43:22.077Z,52.00
2022-11-13T15:46:42.225Z,52.10
2022-11-13T15:50:20.174Z,52.60
2022-11-13T15:53:40.701Z,52.10
2022-11-13T15:57:01.146Z,52.00
2022-11-13T16:00:27.513Z,52.00
2022-11-13T16:03:48.024Z,51.50
2022-11-13T16:07:15.947Z,51.60
2022-11-13T16:10:36.092Z,51.80
2022-11-13T16:13:56.677Z,51.80
2022-11-13T16:17:20.271Z,51.90
2022-11-13T16:20:40.750Z,51.90
2022-11-13T16:24:01.248Z,52.50
2022-11-13T16:27:30.869Z,51.90
2022-11-13T16:30:51.340Z,51.90
2022-11-13T16:34:12.154Z,52.00
2022-11-13T16:37:32.290Z,52.00
2022-11-13T16:40:52.787Z,51.90
2022-11-13T16:44:13.096Z,51.90
2022-11-13T16:47:33.540Z,51.90
2022-11-13T16:50:54.081Z,51.90
2022-11-13T16:54:14.771Z,51.90
2022-11-13T16:57:34.823Z,52.00
2022-11-13T17:00:59.927Z,51.90
2022-11-13T17:04:20.650Z,52.00
2022-11-13T17:07:41.650Z,51.90
2022-11-13T17:11:02.055Z,52.00
2022-11-13T17:14:22.601Z,52.00
2022-11-13T17:17:43.005Z,52.00
2022-11-13T17:21:03.537Z,52.00
2022-11-13T17:24:24.049Z,52.00
2022-11-13T17:27:44.630Z,52.00
2022-11-13T17:31:08.387Z,52.00
2022-11-13T17:34:28.430Z,52.00
2022-11-13T17:37:48.914Z,52.00
2022-11-13T17:41:12.000Z,51.90
2022-11-13T17:44:32.590Z,52.00
2022-11-13T17:47:52.958Z,52.00
2022-11-13T17:51:15.215Z,51.90
2022-11-13T17:54:35.341Z,52.40
2022-11-13T17:57:59.738Z,52.00
2022-11-13T18:01:22.098Z,52.00
2022-11-13T18:04:42.510Z,52.00
2022-11-13T18:08:02.894Z,52.00
2022-11-13T18:11:25.894Z,52.00
2022-11-13T18:14:52.149Z,52.00
2022-11-13T18:18:12.354Z,51.90
2022-11-13T18:21:34.572Z,52.00
2022-11-13T18:24:55.066Z,52.00
2022-11-13T18:28:15.318Z,52.00
2022-11-13T18:31:35.884Z,52.00
2022-11-13T18:34:55.927Z,52.10
2022-11-13T18:38:16.278Z,52.10
2022-11-13T18:41:36.921Z,52.20
2022-11-13T18:44:58.661Z,52.10
2022-11-13T18:48:21.695Z,52.20
2022-11-13T18:51:43.387Z,52.20
2022-11-13T18:55:04.040Z,52.10
2022-11-13T18:58:24.505Z,52.10
2022-11-13T19:01:45.459Z,52.10
2022-11-13T19:05:05.855Z,52.20
2022-11-13T19:08:26.586Z,52.10
2022-11-13T19:11:47.490Z,52.10
2022-11-13T19:15:08.322Z,52.20
2022-11-13T19:18:29.165Z,52.20
2022-11-13T19:21:49.935Z,52.10
2022-11-13T19:25:10.481Z,52.10
2022-11-13T19:28:31.237Z,52.20
2022-11-13T19:31:53.608Z,52.20
2022-11-13T19:35:14.197Z,52.30
2022-11-13T19:38:35.366Z,52.20
2022-11-13T19:41:55.821Z,52.20
2022-11-13T19:45:16.190Z,52.20
2022-11-13T19:48:38.669Z,52.20
2022-11-13T19:51:58.785Z,52.30
2022-11-13T19:55:19.276Z,52.20
2022-11-13T19:58:42.945Z,52.20
2022-11-13T20:02:03.337Z,52.20
2022-11-13T20:05:23.916Z,52.10
2022-11-13T20:08:44.651Z,52.00
2022-11-13T20:12:05.150Z,52.10
2022-11-13T20:15:25.654Z,52.10
2022-11-13T20:18:46.582Z,52.10
2022-11-13T20:22:06.730Z,52.10
2022-11-13T20:25:28.566Z,52.10
2022-11-13T20:28:48.838Z,52.10
2022-11-13T20:32:09.206Z,52.10
2022-11-13T20:35:29.554Z,52.10
2022-11-13T20:38:52.813Z,52.10
2022-11-13T20:42:13.143Z,52.10
2022-11-13T20:45:33.434Z,51.20
2022-11-13T20:48:53.929Z,51.70
2022-11-13T20:52:14.338Z,51.80
2022-11-13T20:55:34.809Z,51.80
2022-11-13T20:58:55.527Z,51.90
2022-11-13T21:02:15.857Z,51.90
2022-11-13T21:05:36.234Z,51.90
2022-11-13T21:08:58.031Z,55.20
2022-11-13T21:12:18.238Z,56.40
2022-11-13T21:15:39.001Z,56.10
2022-11-13T21:19:00.109Z,56.20
2022-11-13T21:22:20.294Z,55.70
2022-11-13T21:25:40.849Z,55.90
2022-11-13T21:29:01.274Z,56.20
2022-11-13T21:32:21.770Z,57.00
2022-11-13T21:35:42.164Z,56.60
2022-11-13T21:39:02.757Z,56.90
2022-11-13T21:42:23.135Z,56.90
2022-11-13T21:45:43.478Z,56.90
2022-11-13T21:49:06.698Z,57.00
2022-11-13T21:52:27.165Z,56.60
2022-11-13T21:55:51.387Z,57.40
2022-11-13T21:59:11.833Z,56.70
2022-11-13T22:02:32.303Z,56.90
2022-11-13T22:06:15.925Z,57.10
2022-11-13T22:09:37.501Z,56.30
2022-11-13T22:12:57.729Z,56.90
2022-11-13T22:16:18.484Z,57.10
2022-11-13T22:19:38.852Z,56.90
2022-11-13T22:22:59.203Z,57.20
2022-11-13T22:26:20.872Z,56.90
2022-11-13T22:29:41.529Z,57.50
2022-11-13T22:33:02.111Z,56.70
2022-11-13T22:36:28.065Z,56.70
2022-11-13T22:39:48.362Z,56.40
2022-11-13T22:43:08.783Z,56.60
2022-11-13T22:46:31.291Z,56.40
2022-11-13T22:49:51.349Z,56.40
2022-11-13T22:53:14.575Z,56.50
2022-11-13T22:56:37.638Z,56.60
2022-11-13T22:59:57.830Z,56.20
2022-11-13T23:03:18.378Z,56.90
2022-11-13T23:06:39.038Z,56.80
2022-11-13T23:09:59.391Z,56.40
2022-11-13T23:13:19.907Z,57.00
2022-11-13T23:16:40.311Z,56.80
2022-11-13T23:20:00.749Z,56.60
2022-11-13T23:23:21.135Z,56.70
2022-11-13T23:26:41.480Z,56.60
2022-11-13T23:30:01.908Z,56.80
2022-11-13T23:33:22.574Z,56.70
2022-11-13T23:36:42.641Z,56.40
2022-11-13T23:40:03.225Z,57.00
2022-11-13T23:43:36.424Z,56.70
2022-11-13T23:47:04.899Z,56.10
2022-11-13T23:50:25.827Z,57.00
2022-11-13T23:53:46.314Z,56.20
2022-11-13T23:57:07.040Z,56.60
